Portada
METAR-TAF:

METAR-TAF

Aeropuertos :

Aeropuerto Internacional Esenboğa

Ankara Esenboğa, Turquía

latitud: 40-07N, longitud: 032-59E, altitud: 953 m

Observación

El informe se hizo hace 47 minutos, a las 16:50 UTC
Viento 7 kt del norte
Temperatura 29°C
Humedad 29%
Presión 1011 hPa
Visibilidad 10 km o más
Escasas nubes a una altura de 4000 ft

METAR: LTAC 031650Z 36007KT 9999 FEW040 29/09 Q1011 NOSIG RMK RWY21L 35007KT RWY03L 35005KT RWY21R 36006KT

Hora: 20:37 (17:37 UTC)

Pronóstico

El informe se hizo hace 57 minutos, a las 16:40 UTC
Pronóstico válido del 03 a las 18 UTC al 04 a las 18 UTC
Viento 2 kt con dirección variable
Visibilidad 10 km o más
sin nubes por debajo de 1500 m y sin presencia de cumulonimbus.

TAF: LTAC 031640Z 0318/0418 VRB02KT CAVOK

Observaciones y pronósticos meteorológicos de más de 4000 aeropuertos (mensajes METAR y TAF).

Los puntos amarillos y rojos representan las estaciones disponibles.

Ponga el ratón en el punto deseado para ver el nombre de la estación.

Haga clic para ver las observaciones y los pronósticos meteorológicos.

Para cambiar el mapa : haga clic en los botones verdes con una cruz de color negro para hacer un zoom, en el botón verde con un guión para alejar o en las flechas verdes para mapas adyacentes.


METAR-TAF: